createdAt,value
2023-01-26T00:01:44.776Z,9.60
2023-01-26T00:04:13.304Z,10.57
2023-01-26T00:06:40.858Z,11.70
2023-01-26T00:09:14.956Z,11.80
2023-01-26T00:11:42.599Z,13.50
2023-01-26T00:14:10.267Z,11.93
2023-01-26T00:16:38.046Z,8.70
2023-01-26T00:19:05.990Z,8.77
2023-01-26T00:21:33.688Z,8.53
2023-01-26T00:24:01.337Z,8.37
2023-01-26T00:26:29.020Z,9.77
2023-01-26T00:28:56.580Z,9.07
2023-01-26T00:31:29.258Z,9.03
2023-01-26T00:33:57.818Z,9.30
2023-01-26T00:36:25.905Z,9.33
2023-01-26T00:38:53.469Z,7.80
2023-01-26T00:41:39.643Z,8.40
2023-01-26T00:44:09.818Z,7.77
2023-01-26T00:46:41.611Z,8.37
2023-01-26T00:49:09.286Z,10.20
2023-01-26T00:51:36.774Z,9.03
2023-01-26T00:54:05.095Z,7.40
2023-01-26T00:56:32.587Z,7.13
2023-01-26T00:59:00.123Z,8.07
2023-01-26T01:01:27.585Z,7.30
2023-01-26T01:03:55.121Z,7.17
2023-01-26T01:06:22.648Z,6.83
2023-01-26T01:08:51.696Z,6.70
2023-01-26T01:11:19.291Z,7.60
2023-01-26T01:13:46.919Z,8.40
2023-01-26T01:16:16.787Z,7.87
2023-01-26T01:18:45.197Z,8.13
2023-01-26T01:21:16.464Z,8.63
2023-01-26T01:23:44.615Z,8.40
2023-01-26T01:26:13.015Z,8.20
2023-01-26T01:28:42.128Z,7.63
2023-01-26T01:31:13.711Z,8.23
2023-01-26T01:33:42.204Z,8.07
2023-01-26T01:36:14.632Z,8.13
2023-01-26T01:38:43.514Z,8.97
2023-01-26T01:41:12.448Z,8.50
2023-01-26T01:43:40.223Z,7.83
2023-01-26T01:46:36.474Z,8.63
2023-01-26T01:49:17.185Z,9.00
2023-01-26T01:52:00.817Z,8.17
2023-01-26T01:55:06.169Z,8.07
2023-01-26T01:57:55.910Z,8.03
2023-01-26T02:00:24.725Z,8.97
2023-01-26T02:03:11.948Z,11.07
2023-01-26T02:06:13.315Z,8.40
2023-01-26T02:08:49.631Z,8.53
2023-01-26T02:11:34.046Z,9.10
2023-01-26T02:14:07.520Z,8.87
2023-01-26T02:16:35.560Z,11.40
2023-01-26T02:19:06.707Z,9.30
2023-01-26T02:21:34.541Z,9.33
2023-01-26T02:24:23.000Z,8.83
2023-01-26T02:26:54.865Z,9.13
2023-01-26T02:29:23.522Z,9.30
2023-01-26T02:31:53.634Z,9.13
2023-01-26T02:34:21.851Z,9.03
2023-01-26T02:37:01.094Z,8.67
2023-01-26T02:40:00.054Z,7.77
2023-01-26T02:42:39.524Z,8.90
2023-01-26T02:45:08.396Z,7.73
2023-01-26T02:47:35.956Z,7.17
2023-01-26T02:50:06.707Z,7.03
2023-01-26T02:52:34.333Z,8.10
2023-01-26T02:55:25.011Z,6.83
2023-01-26T02:57:59.812Z,7.23
2023-01-26T03:00:37.369Z,9.63
2023-01-26T03:03:45.657Z,8.43
2023-01-26T03:06:15.333Z,8.07
2023-01-26T03:08:43.287Z,6.57
2023-01-26T03:11:10.888Z,7.63
2023-01-26T03:13:38.402Z,7.67
2023-01-26T03:16:12.019Z,7.30
2023-01-26T03:18:58.439Z,6.80
2023-01-26T03:21:44.917Z,6.97
2023-01-26T03:24:33.470Z,7.37
2023-01-26T03:27:23.011Z,6.70
2023-01-26T03:29:51.627Z,8.10
2023-01-26T03:32:19.223Z,8.23
2023-01-26T03:34:47.859Z,7.27
2023-01-26T03:37:15.351Z,6.17
2023-01-26T03:40:11.095Z,6.53
2023-01-26T03:42:57.984Z,5.97
2023-01-26T03:45:44.236Z,5.60
2023-01-26T03:48:32.101Z,6.27
2023-01-26T03:51:19.318Z,5.90
2023-01-26T03:54:05.613Z,5.47
2023-01-26T03:56:33.545Z,5.50
2023-01-26T03:59:08.560Z,5.07
2023-01-26T04:01:40.168Z,6.20
2023-01-26T04:04:27.672Z,7.40
2023-01-26T04:07:14.532Z,7.30
2023-01-26T04:09:46.744Z,7.63
2023-01-26T04:12:14.312Z,7.87
2023-01-26T04:15:29.370Z,7.50
2023-01-26T04:18:15.955Z,5.43
2023-01-26T04:21:02.114Z,5.20
2023-01-26T04:23:29.772Z,4.13
2023-01-26T04:25:57.345Z,3.97
2023-01-26T04:28:24.847Z,4.60
2023-01-26T04:30:52.582Z,5.80
2023-01-26T04:33:20.488Z,14.10
2023-01-26T04:35:48.088Z,8.43
2023-01-26T04:38:15.662Z,5.40
2023-01-26T04:40:43.640Z,5.30
2023-01-26T04:43:11.551Z,6.40
2023-01-26T04:45:39.194Z,13.30
2023-01-26T04:48:06.939Z,10.37
2023-01-26T04:50:34.510Z,6.23
2023-01-26T04:53:02.287Z,5.67
2023-01-26T04:55:30.659Z,5.27
2023-01-26T04:57:59.233Z,6.03
2023-01-26T05:00:26.808Z,5.53
2023-01-26T05:02:57.788Z,7.37
2023-01-26T05:05:25.338Z,4.60
2023-01-26T05:07:53.369Z,5.30
2023-01-26T05:10:22.093Z,3.73
2023-01-26T05:12:58.453Z,4.47
2023-01-26T05:15:44.967Z,3.67
2023-01-26T05:18:25.908Z,3.93
2023-01-26T05:20:57.103Z,4.33
2023-01-26T05:23:27.156Z,4.00
2023-01-26T05:26:04.859Z,4.10
2023-01-26T05:28:41.518Z,4.43
2023-01-26T05:31:09.141Z,4.40
2023-01-26T05:33:36.914Z,4.40
2023-01-26T05:36:07.937Z,4.10
2023-01-26T05:38:36.192Z,4.10
2023-01-26T05:41:04.164Z,3.90
2023-01-26T05:43:40.207Z,4.30
2023-01-26T05:46:10.368Z,3.90
2023-01-26T05:48:40.801Z,4.03
2023-01-26T05:51:08.288Z,4.47
2023-01-26T05:53:37.251Z,3.83
2023-01-26T05:56:05.234Z,4.40
2023-01-26T05:58:38.102Z,4.27
2023-01-26T06:01:06.150Z,4.27
2023-01-26T06:03:42.738Z,4.10
2023-01-26T06:06:10.314Z,4.00
2023-01-26T06:08:45.654Z,4.07
2023-01-26T06:11:39.257Z,4.33
2023-01-26T06:14:11.427Z,4.77
2023-01-26T06:16:39.357Z,4.73
2023-01-26T06:19:11.117Z,4.30
2023-01-26T06:21:39.775Z,4.60
2023-01-26T06:24:08.108Z,4.63
2023-01-26T06:26:35.644Z,5.50
2023-01-26T06:29:03.403Z,5.27
2023-01-26T06:31:37.165Z,5.07
2023-01-26T06:34:05.983Z,4.30
2023-01-26T06:36:38.415Z,4.70
2023-01-26T06:39:08.807Z,4.40
2023-01-26T06:41:36.355Z,4.37
2023-01-26T06:44:04.237Z,4.80
2023-01-26T06:46:31.941Z,5.00
2023-01-26T06:49:01.677Z,4.47
2023-01-26T06:51:42.213Z,5.07
2023-01-26T06:54:12.892Z,5.60
2023-01-26T06:56:59.294Z,5.03
2023-01-26T06:59:47.024Z,4.90
2023-01-26T07:02:22.651Z,5.63
2023-01-26T07:04:51.106Z,5.70
2023-01-26T07:07:18.707Z,4.83
2023-01-26T07:09:46.535Z,6.33
2023-01-26T07:12:14.054Z,5.63
2023-01-26T07:14:41.705Z,7.50
2023-01-26T07:17:09.256Z,6.70
2023-01-26T07:19:37.393Z,6.73
2023-01-26T07:22:05.548Z,5.90
2023-01-26T07:24:33.076Z,12.00
2023-01-26T07:27:00.709Z,6.53
2023-01-26T07:29:28.722Z,7.97
2023-01-26T07:31:56.871Z,7.63
2023-01-26T07:34:24.534Z,5.83
2023-01-26T07:36:53.240Z,7.57
2023-01-26T07:39:20.777Z,6.27
2023-01-26T07:41:49.391Z,5.23
2023-01-26T07:44:36.622Z,5.17
2023-01-26T07:47:04.104Z,5.40
2023-01-26T07:49:32.535Z,5.20
2023-01-26T07:52:00.096Z,4.93
2023-01-26T07:54:27.635Z,4.03
2023-01-26T07:56:58.519Z,5.00
2023-01-26T07:59:26.155Z,5.33
2023-01-26T08:01:53.933Z,5.50
2023-01-26T08:04:22.090Z,4.87
2023-01-26T08:06:52.728Z,4.03
2023-01-26T08:09:20.910Z,5.10
2023-01-26T08:11:48.531Z,4.47
2023-01-26T08:14:16.276Z,4.47
2023-01-26T08:16:45.493Z,5.90
2023-01-26T08:19:13.092Z,5.70
2023-01-26T08:21:40.629Z,4.70
2023-01-26T08:24:08.591Z,4.73
2023-01-26T08:26:38.489Z,5.00
2023-01-26T08:29:06.349Z,4.47
2023-01-26T08:31:34.141Z,4.73
2023-01-26T08:34:01.773Z,4.80
2023-01-26T08:36:29.263Z,5.57
2023-01-26T08:38:57.472Z,5.40
2023-01-26T08:41:25.164Z,5.40
2023-01-26T08:44:12.640Z,5.27
2023-01-26T08:46:40.166Z,5.23
2023-01-26T08:49:07.704Z,6.00
2023-01-26T08:51:35.243Z,5.80
2023-01-26T08:54:05.103Z,6.07
2023-01-26T08:56:32.592Z,5.70
2023-01-26T08:59:00.232Z,5.47
2023-01-26T09:01:28.019Z,5.97
2023-01-26T09:03:56.374Z,6.33
2023-01-26T09:06:27.704Z,5.63
2023-01-26T09:08:55.585Z,5.43
2023-01-26T09:11:23.137Z,6.07
2023-01-26T09:13:56.799Z,6.13
2023-01-26T09:16:25.476Z,6.07
2023-01-26T09:18:54.762Z,5.67
2023-01-26T09:21:25.142Z,5.70
2023-01-26T09:23:53.155Z,6.47
2023-01-26T09:26:20.848Z,6.10
2023-01-26T09:28:53.565Z,6.13
2023-01-26T09:31:22.512Z,6.50
2023-01-26T09:33:52.295Z,6.37
2023-01-26T09:36:20.508Z,6.23
2023-01-26T09:38:48.343Z,7.07
2023-01-26T09:41:36.728Z,7.07
2023-01-26T09:44:17.236Z,6.87
2023-01-26T09:47:22.703Z,6.90
2023-01-26T09:50:05.234Z,5.70
2023-01-26T09:53:02.933Z,6.43
2023-01-26T09:55:31.823Z,6.93
2023-01-26T09:58:28.744Z,6.30
2023-01-26T10:01:03.072Z,6.60
2023-01-26T10:04:09.692Z,6.50
2023-01-26T10:06:38.891Z,6.23
2023-01-26T10:09:25.686Z,6.80
2023-01-26T10:12:08.474Z,7.97
2023-01-26T10:14:47.199Z,8.13
2023-01-26T10:17:33.887Z,9.37
2023-01-26T10:20:29.043Z,9.57
2023-01-26T10:23:38.411Z,12.27
2023-01-26T10:26:19.301Z,57.53
2023-01-26T10:28:52.938Z,59.23
2023-01-26T10:31:30.189Z,64.13
2023-01-26T10:34:25.321Z,38.80
2023-01-26T10:37:15.330Z,39.60
2023-01-26T10:40:07.618Z,69.37
2023-01-26T10:42:37.892Z,53.43
2023-01-26T10:45:31.572Z,31.83
2023-01-26T10:48:13.740Z,21.40
2023-01-26T10:50:47.880Z,24.43
2023-01-26T10:53:27.593Z,25.20
2023-01-26T10:56:14.218Z,28.93
2023-01-26T10:58:45.960Z,26.27
2023-01-26T11:01:19.084Z,20.33
2023-01-26T11:04:13.619Z,24.07
2023-01-26T11:06:46.026Z,22.43
2023-01-26T11:09:32.672Z,26.23
2023-01-26T11:12:06.502Z,31.93
2023-01-26T11:14:37.977Z,20.93
2023-01-26T11:17:23.368Z,21.23
2023-01-26T11:20:24.256Z,18.20
2023-01-26T11:22:57.990Z,16.73
2023-01-26T11:25:42.884Z,16.00
2023-01-26T11:28:59.879Z,13.07
2023-01-26T11:32:05.020Z,13.30
2023-01-26T11:35:04.926Z,12.50
2023-01-26T11:37:54.007Z,12.07
2023-01-26T11:40:38.391Z,10.83
2023-01-26T11:43:39.902Z,10.80
2023-01-26T11:46:41.487Z,10.00
2023-01-26T11:49:41.719Z,16.63
2023-01-26T11:52:32.831Z,27.87
2023-01-26T11:55:28.905Z,18.50
2023-01-26T11:58:27.072Z,19.37
2023-01-26T12:01:09.279Z,19.60
2023-01-26T12:03:47.006Z,23.57
2023-01-26T12:06:40.605Z,21.53
2023-01-26T12:10:00.138Z,19.20
2023-01-26T12:12:51.307Z,18.67
2023-01-26T12:15:29.935Z,18.27
2023-01-26T12:18:10.731Z,17.40
2023-01-26T12:20:45.873Z,19.33
2023-01-26T12:23:27.826Z,15.43
2023-01-26T12:26:13.394Z,12.43
2023-01-26T12:28:50.647Z,11.87
2023-01-26T12:31:53.744Z,15.10
2023-01-26T12:34:29.043Z,16.90
2023-01-26T12:37:17.911Z,13.80
2023-01-26T12:40:09.535Z,14.27
2023-01-26T12:42:59.570Z,15.00
2023-01-26T12:45:55.456Z,13.07
2023-01-26T12:48:24.424Z,13.83
2023-01-26T12:51:02.744Z,12.47
2023-01-26T12:54:05.180Z,14.07
2023-01-26T12:56:44.704Z,15.03
2023-01-26T12:59:39.410Z,15.23
2023-01-26T13:02:31.543Z,18.63
2023-01-26T13:05:01.538Z,16.73
2023-01-26T13:07:40.773Z,15.90
2023-01-26T13:10:29.339Z,16.30
2023-01-26T13:13:38.514Z,14.90
2023-01-26T13:16:22.031Z,13.53
2023-01-26T13:18:58.614Z,14.53
2023-01-26T13:21:46.120Z,16.07
2023-01-26T13:24:19.406Z,15.90
2023-01-26T13:26:49.562Z,14.63
2023-01-26T13:29:27.343Z,13.60
2023-01-26T13:32:04.057Z,16.13
2023-01-26T13:34:49.567Z,19.17
2023-01-26T13:37:43.023Z,22.00
2023-01-26T13:40:32.556Z,24.47
2023-01-26T13:43:29.021Z,29.93
2023-01-26T13:46:01.284Z,27.10
2023-01-26T13:48:41.841Z,17.57
2023-01-26T13:51:20.898Z,20.10
2023-01-26T13:54:04.797Z,25.03
2023-01-26T13:56:42.186Z,16.20
2023-01-26T13:59:21.295Z,20.53
2023-01-26T14:01:53.932Z,15.03
2023-01-26T14:04:28.647Z,14.27
2023-01-26T14:07:06.512Z,18.20
2023-01-26T14:09:52.719Z,16.60
2023-01-26T14:12:28.270Z,15.13
2023-01-26T14:15:04.224Z,18.43
2023-01-26T14:17:36.801Z,22.13
2023-01-26T14:20:34.874Z,19.90
2023-01-26T14:23:15.356Z,22.07
2023-01-26T14:26:19.328Z,28.40
2023-01-26T14:29:11.282Z,40.37
2023-01-26T14:31:42.581Z,30.97
2023-01-26T14:34:11.821Z,27.57
2023-01-26T14:36:42.364Z,26.63
2023-01-26T14:39:23.052Z,26.37
2023-01-26T14:41:51.712Z,27.17
2023-01-26T14:44:19.187Z,24.90
2023-01-26T14:47:04.639Z,31.63
2023-01-26T14:50:05.159Z,26.23
2023-01-26T14:52:42.935Z,31.67
2023-01-26T14:55:40.887Z,41.70
2023-01-26T14:58:35.708Z,31.47
2023-01-26T15:01:07.578Z,27.80
2023-01-26T15:03:40.784Z,20.73
2023-01-26T15:06:25.259Z,20.33
2023-01-26T15:09:02.634Z,21.07
2023-01-26T15:11:56.922Z,19.87
2023-01-26T15:14:46.230Z,19.97
2023-01-26T15:17:40.097Z,14.93
2023-01-26T15:20:19.587Z,14.83
2023-01-26T15:22:52.829Z,16.70
2023-01-26T15:25:26.273Z,14.83
2023-01-26T15:28:01.895Z,16.43
2023-01-26T15:30:35.928Z,18.87
2023-01-26T15:33:04.403Z,20.67
2023-01-26T15:35:34.812Z,20.23
2023-01-26T15:38:06.532Z,19.63
2023-01-26T15:40:34.116Z,24.20
2023-01-26T15:43:18.203Z,33.77
2023-01-26T15:45:56.126Z,25.00
2023-01-26T15:48:25.429Z,22.90
2023-01-26T15:50:53.265Z,20.40
2023-01-26T15:53:22.860Z,19.13
2023-01-26T15:55:56.779Z,22.30
2023-01-26T15:58:25.633Z,27.90
2023-01-26T16:00:53.913Z,28.33
2023-01-26T16:03:24.720Z,29.20
2023-01-26T16:05:52.461Z,23.33
2023-01-26T16:08:20.990Z,25.17
2023-01-26T16:10:49.911Z,31.03
2023-01-26T16:13:19.823Z,23.03
2023-01-26T16:15:54.629Z,17.47
2023-01-26T16:18:22.470Z,19.07
2023-01-26T16:20:50.754Z,19.27
2023-01-26T16:23:25.048Z,41.03
2023-01-26T16:25:53.348Z,19.47
2023-01-26T16:28:21.036Z,20.87
2023-01-26T16:30:51.414Z,18.67
2023-01-26T16:33:21.799Z,19.20
2023-01-26T16:35:49.500Z,21.30
2023-01-26T16:38:17.139Z,16.70
2023-01-26T16:40:48.045Z,19.77
2023-01-26T16:43:42.964Z,18.63
2023-01-26T16:46:13.397Z,17.90
2023-01-26T16:48:41.903Z,17.80
2023-01-26T16:51:27.123Z,21.57
2023-01-26T16:53:55.525Z,19.00
2023-01-26T16:56:46.240Z,21.80
2023-01-26T16:59:13.677Z,21.43
2023-01-26T17:01:42.804Z,22.93
2023-01-26T17:04:11.552Z,18.33
2023-01-26T17:06:40.500Z,18.30
2023-01-26T17:09:08.202Z,22.90
2023-01-26T17:11:35.727Z,24.30
2023-01-26T17:14:03.765Z,21.13
2023-01-26T17:16:34.425Z,29.27
2023-01-26T17:19:05.258Z,21.57
2023-01-26T17:21:35.089Z,19.70
2023-01-26T17:24:02.871Z,27.70
2023-01-26T17:26:30.485Z,43.20
2023-01-26T17:28:58.750Z,42.53
2023-01-26T17:31:30.632Z,44.77
2023-01-26T17:33:58.999Z,53.20
2023-01-26T17:36:26.610Z,41.03
2023-01-26T17:38:57.297Z,44.37
2023-01-26T17:41:28.704Z,25.97
2023-01-26T17:43:57.329Z,22.50
2023-01-26T17:46:27.168Z,29.73
2023-01-26T17:48:55.734Z,27.00
2023-01-26T17:51:27.896Z,25.03
2023-01-26T17:53:57.360Z,21.17
2023-01-26T17:56:32.144Z,15.30
2023-01-26T17:59:14.736Z,20.90
2023-01-26T18:01:59.702Z,23.20
2023-01-26T18:47:02.956Z,18.77
2023-01-26T19:00:47.909Z,22.80
2023-01-26T19:17:57.388Z,14.33
2023-01-26T19:20:45.009Z,22.30
2023-01-26T19:28:44.799Z,11.87
2023-01-26T19:31:24.406Z,16.60
2023-01-26T19:34:25.349Z,16.33
2023-01-26T19:37:10.068Z,11.43
2023-01-26T19:51:28.019Z,11.53
2023-01-26T19:53:59.486Z,13.17
2023-01-26T19:56:41.753Z,12.50
2023-01-26T19:59:16.216Z,12.87
2023-01-26T20:01:50.612Z,14.03
2023-01-26T20:04:40.088Z,12.70
2023-01-26T20:07:32.367Z,13.83
2023-01-26T20:10:07.882Z,11.97
2023-01-26T20:12:41.977Z,12.23
2023-01-26T20:15:16.900Z,9.73
2023-01-26T20:17:48.718Z,9.73
2023-01-26T20:20:19.449Z,13.00
2023-01-26T20:22:53.222Z,13.40
2023-01-26T20:25:28.750Z,11.47
2023-01-26T20:28:00.827Z,7.70
2023-01-26T20:30:31.954Z,8.27
2023-01-26T20:33:05.675Z,8.57
2023-01-26T20:35:38.175Z,8.43
2023-01-26T20:38:08.361Z,6.03
2023-01-26T20:40:42.478Z,8.77
2023-01-26T20:43:13.052Z,6.60
2023-01-26T20:45:43.395Z,7.30
2023-01-26T20:48:14.012Z,8.80
2023-01-26T20:51:06.956Z,9.53
2023-01-26T20:53:48.173Z,9.00
2023-01-26T20:56:32.768Z,8.83
2023-01-26T20:59:08.765Z,8.33
2023-01-26T21:02:02.000Z,9.23
2023-01-26T21:04:34.200Z,9.07
2023-01-26T21:07:06.298Z,10.37
2023-01-26T21:09:37.901Z,10.63
2023-01-26T21:12:08.968Z,11.53
2023-01-26T21:14:40.924Z,11.00
2023-01-26T21:17:10.834Z,11.07
2023-01-26T21:19:42.038Z,11.60
2023-01-26T21:22:15.736Z,11.43
2023-01-26T21:24:46.062Z,11.03
2023-01-26T21:27:15.940Z,9.73
2023-01-26T21:29:45.646Z,10.83
2023-01-26T21:32:18.692Z,10.17
2023-01-26T21:34:49.251Z,10.53
2023-01-26T21:37:41.884Z,9.30
2023-01-26T21:40:13.445Z,8.13
2023-01-26T21:42:42.174Z,10.10
2023-01-26T21:45:33.070Z,13.17
2023-01-26T21:48:20.438Z,9.90
2023-01-26T21:51:08.590Z,11.50
2023-01-26T21:53:39.789Z,8.53
2023-01-26T21:56:10.929Z,7.87
2023-01-26T21:59:23.699Z,9.93
2023-01-26T22:01:58.018Z,9.67
2023-01-26T22:04:30.359Z,8.17
2023-01-26T22:07:00.730Z,9.17
2023-01-26T22:09:36.961Z,11.57
2023-01-26T22:12:05.912Z,7.87
2023-01-26T22:14:33.853Z,8.37
2023-01-26T22:17:06.141Z,8.80
2023-01-26T22:19:37.682Z,9.67
2023-01-26T22:22:06.191Z,13.63
2023-01-26T22:24:34.155Z,12.17
2023-01-26T22:27:02.112Z,14.70
2023-01-26T22:29:30.160Z,14.93
2023-01-26T22:31:57.724Z,16.80
2023-01-26T22:34:25.276Z,15.07
2023-01-26T22:36:53.528Z,13.57
2023-01-26T22:39:21.281Z,14.80
2023-01-26T22:41:48.910Z,13.53
2023-01-26T22:44:16.555Z,12.50
2023-01-26T22:46:44.034Z,13.70
2023-01-26T22:49:11.785Z,12.87
2023-01-26T22:51:39.323Z,12.50
2023-01-26T22:54:06.855Z,11.90
2023-01-26T22:56:34.467Z,12.03
2023-01-26T22:59:02.340Z,12.30
2023-01-26T23:01:33.878Z,13.60
2023-01-26T23:04:02.451Z,16.67
2023-01-26T23:06:30.623Z,15.80
2023-01-26T23:09:01.041Z,16.53
2023-01-26T23:11:30.636Z,14.23
2023-01-26T23:14:00.206Z,14.40
2023-01-26T23:16:28.668Z,15.10
2023-01-26T23:18:59.814Z,17.73
2023-01-26T23:21:30.039Z,15.80
2023-01-26T23:23:58.449Z,13.37
2023-01-26T23:26:26.304Z,13.87
2023-01-26T23:28:54.302Z,13.17
2023-01-26T23:31:21.991Z,11.10
2023-01-26T23:33:50.598Z,11.23
2023-01-26T23:36:18.184Z,10.97
2023-01-26T23:38:45.996Z,11.43
2023-01-26T23:41:14.631Z,10.53
2023-01-26T23:43:42.400Z,8.13
2023-01-26T23:46:11.547Z,9.07
2023-01-26T23:48:39.683Z,8.43
2023-01-26T23:51:10.797Z,11.03
2023-01-26T23:53:38.962Z,15.00
2023-01-26T23:56:15.149Z,17.20
2023-01-26T23:58:43.085Z,14.13
